UAL340 KLAX-KSLC
Flight info
| Callsign | UAL340 |
|---|---|
| Flight time | N/A |
| Altitude | 37000 |
| Route | ORCKA5 LAS Q70 BLIPP Q842 WINEN MLF PITTT1 |
| Aircraft | A319/M-SDE3FGHIRWY/LB1 |
Departure
| Time | 2026-05-06 03:54 |
|---|---|
| Airport | Los Angeles International Airport (KLAX) |
Arrival
| Time | N/A |
|---|---|
| Airport | Salt Lake City International Airport (KSLC) |
| Time | Latitude | Longitude | Altitude | Speed | Heading |
|---|---|---|---|---|---|
| 2026-05-06 03:27 | 33.94688 | -118.40187 | 122 ft | 0 kts | 82° |
| 2026-05-06 03:40 | 33.94688 | -118.40188 | 122 ft | 2 kts | 82° |
| 2026-05-06 03:41 | 33.94686 | -118.40208 | 123 ft | 2 kts | 84° |
| 2026-05-06 03:41 | 33.94686 | -118.40228 | 122 ft | 2 kts | 107° |
| 2026-05-06 03:41 | 33.94685 | -118.40246 | 123 ft | 2 kts | 40° |
| 2026-05-06 03:41 | 33.94671 | -118.40252 | 121 ft | 2 kts | 349° |
| 2026-05-06 03:42 | 33.94658 | -118.40248 | 123 ft | 0 kts | 346° |
| 2026-05-06 03:45 | 33.94664 | -118.40249 | 122 ft | 4 kts | 352° |
| 2026-05-06 03:45 | 33.94729 | -118.40257 | 124 ft | 14 kts | 353° |
| 2026-05-06 03:45 | 33.94810 | -118.40307 | 124 ft | 13 kts | 270° |
| 2026-05-06 03:46 | 33.94801 | -118.40402 | 124 ft | 16 kts | 265° |
| 2026-05-06 03:46 | 33.94788 | -118.40558 | 123 ft | 18 kts | 261° |
| 2026-05-06 03:46 | 33.94770 | -118.40719 | 125 ft | 25 kts | 262° |
| 2026-05-06 03:46 | 33.94750 | -118.40922 | 125 ft | 25 kts | 263° |
| 2026-05-06 03:47 | 33.94728 | -118.41122 | 123 ft | 19 kts | 262° |
| 2026-05-06 03:47 | 33.94681 | -118.41270 | 123 ft | 19 kts | 210° |
| 2026-05-06 03:47 | 33.94533 | -118.41262 | 124 ft | 27 kts | 173° |
| 2026-05-06 03:47 | 33.94339 | -118.41230 | 124 ft | 27 kts | 173° |
| 2026-05-06 03:48 | 33.94182 | -118.41208 | 123 ft | 19 kts | 169° |
| 2026-05-06 03:48 | 33.94017 | -118.41183 | 124 ft | 27 kts | 174° |
| 2026-05-06 03:48 | 33.93872 | -118.41166 | 124 ft | 21 kts | 174° |
| 2026-05-06 03:48 | 33.93767 | -118.41095 | 125 ft | 20 kts | 83° |
| 2026-05-06 03:49 | 33.93787 | -118.40885 | 126 ft | 28 kts | 86° |
| 2026-05-06 03:49 | 33.93812 | -118.40648 | 124 ft | 25 kts | 81° |
| 2026-05-06 03:49 | 33.93830 | -118.40448 | 126 ft | 23 kts | 84° |
| 2026-05-06 03:49 | 33.93851 | -118.40260 | 125 ft | 25 kts | 82° |
| 2026-05-06 03:50 | 33.93875 | -118.40037 | 125 ft | 26 kts | 83° |
| 2026-05-06 03:50 | 33.93895 | -118.39830 | 123 ft | 23 kts | 83° |
| 2026-05-06 03:50 | 33.93914 | -118.39646 | 124 ft | 21 kts | 84° |
| 2026-05-06 03:50 | 33.93932 | -118.39477 | 125 ft | 20 kts | 83° |
| 2026-05-06 03:51 | 33.93948 | -118.39321 | 125 ft | 18 kts | 83° |
| 2026-05-06 03:51 | 33.93962 | -118.39179 | 124 ft | 16 kts | 83° |
| 2026-05-06 03:51 | 33.93975 | -118.39051 | 125 ft | 14 kts | 85° |
| 2026-05-06 03:51 | 33.93984 | -118.38962 | 124 ft | 11 kts | 82° |
| 2026-05-06 03:52 | 33.93995 | -118.38866 | 125 ft | 14 kts | 83° |
| 2026-05-06 03:52 | 33.94010 | -118.38708 | 125 ft | 23 kts | 82° |
| 2026-05-06 03:52 | 33.94032 | -118.38494 | 125 ft | 29 kts | 84° |
| 2026-05-06 03:52 | 33.94055 | -118.38273 | 123 ft | 25 kts | 82° |
| 2026-05-06 03:53 | 33.94076 | -118.38070 | 125 ft | 19 kts | 84° |
| 2026-05-06 03:53 | 33.94001 | -118.38005 | 124 ft | 18 kts | 212° |
| 2026-05-06 03:53 | 33.93971 | -118.38182 | 125 ft | 47 kts | 264° |
| 2026-05-06 03:53 | 33.93902 | -118.38853 | 126 ft | 114 kts | 263° |
| 2026-05-06 03:54 | 33.93778 | -118.40043 | 188 ft | 168 kts | 262° |
| 2026-05-06 03:54 | 33.93620 | -118.41509 | 813 ft | 182 kts | 263° |
| 2026-05-06 03:54 | 33.93479 | -118.43042 | 1643 ft | 185 kts | 264° |
| 2026-05-06 03:54 | 33.93339 | -118.44634 | 2212 ft | 202 kts | 263° |
| 2026-05-06 03:55 | 33.93153 | -118.46451 | 2500 ft | 236 kts | 263° |
| 2026-05-06 03:55 | 33.92936 | -118.48535 | 2953 ft | 267 kts | 263° |
| 2026-05-06 03:55 | 33.92708 | -118.50730 | 4215 ft | 253 kts | 263° |
| 2026-05-06 03:55 | 33.92486 | -118.52863 | 5215 ft | 263 kts | 263° |
| 2026-05-06 03:56 | 33.92257 | -118.55072 | 6103 ft | 267 kts | 263° |
| 2026-05-06 03:56 | 33.92025 | -118.57299 | 7063 ft | 270 kts | 263° |
| 2026-05-06 03:56 | 33.91631 | -118.59527 | 7931 ft | 275 kts | 251° |
| 2026-05-06 03:56 | 33.90949 | -118.61691 | 8789 ft | 278 kts | 248° |
| 2026-05-06 03:57 | 33.90205 | -118.63865 | 9634 ft | 282 kts | 248° |
| 2026-05-06 03:57 | 33.89436 | -118.66092 | 9965 ft | 305 kts | 246° |
| 2026-05-06 03:57 | 33.88451 | -118.68303 | 9939 ft | 290 kts | 237° |
| 2026-05-06 03:57 | 33.87318 | -118.70314 | 9950 ft | 294 kts | 235° |
| 2026-05-06 03:58 | 33.86147 | -118.72285 | 9937 ft | 286 kts | 231° |
| 2026-05-06 03:58 | 33.84603 | -118.73813 | 9939 ft | 287 kts | 210° |
| 2026-05-06 03:58 | 33.82823 | -118.74906 | 9938 ft | 290 kts | 202° |
| 2026-05-06 03:58 | 33.80881 | -118.75501 | 9937 ft | 287 kts | 198° |
| 2026-05-06 03:59 | 33.78985 | -118.76283 | 9920 ft | 289 kts | 188° |
| 2026-05-06 03:59 | 33.76990 | -118.76007 | 9991 ft | 298 kts | 158° |
| 2026-05-06 03:59 | 33.75368 | -118.74563 | 10975 ft | 293 kts | 128° |
| 2026-05-06 03:59 | 33.74506 | -118.72289 | 11329 ft | 314 kts | 98° |
| 2026-05-06 04:00 | 33.74688 | -118.69593 | 11490 ft | 339 kts | 70° |
| 2026-05-06 04:00 | 33.75842 | -118.67015 | 11642 ft | 363 kts | 55° |
| 2026-05-06 04:00 | 33.77479 | -118.64633 | 12176 ft | 373 kts | 47° |
| 2026-05-06 04:00 | 33.79309 | -118.62362 | 12821 ft | 376 kts | 44° |
| 2026-05-06 04:01 | 33.81149 | -118.60187 | 13868 ft | 372 kts | 45° |
| 2026-05-06 04:01 | 33.82962 | -118.57894 | 14322 ft | 382 kts | 47° |
| 2026-05-06 04:01 | 33.84745 | -118.55514 | 14935 ft | 388 kts | 48° |
| 2026-05-06 04:01 | 33.86565 | -118.53047 | 14954 ft | 394 kts | 48° |
| 2026-05-06 04:02 | 33.87747 | -118.51430 | 14948 ft | 385 kts | 49° |
| 2026-05-06 04:02 | 33.89520 | -118.48962 | 14949 ft | 390 kts | 49° |
| 2026-05-06 04:02 | 33.91270 | -118.46497 | 14949 ft | 386 kts | 49° |
| 2026-05-06 04:02 | 33.92955 | -118.43971 | 14939 ft | 387 kts | 54° |
| 2026-05-06 04:03 | 33.94429 | -118.41267 | 14943 ft | 387 kts | 58° |
| 2026-05-06 04:03 | 33.95854 | -118.38506 | 14943 ft | 387 kts | 57° |
| 2026-05-06 04:03 | 33.97385 | -118.35848 | 14942 ft | 386 kts | 53° |
| 2026-05-06 04:03 | 33.98979 | -118.33236 | 14943 ft | 387 kts | 54° |
| 2026-05-06 04:04 | 34.00523 | -118.30578 | 14944 ft | 387 kts | 56° |
| 2026-05-06 04:04 | 34.02003 | -118.27928 | 14946 ft | 386 kts | 56° |
| 2026-05-06 04:04 | 34.03509 | -118.25246 | 14947 ft | 386 kts | 55° |
| 2026-05-06 04:04 | 34.05038 | -118.22565 | 15007 ft | 391 kts | 55° |
| 2026-05-06 04:05 | 34.06571 | -118.19866 | 15780 ft | 388 kts | 56° |
| 2026-05-06 04:05 | 34.08097 | -118.17163 | 16418 ft | 392 kts | 56° |
| 2026-05-06 04:05 | 34.09642 | -118.14427 | 16953 ft | 397 kts | 56° |
| 2026-05-06 04:05 | 34.11205 | -118.11665 | 17552 ft | 399 kts | 56° |
| 2026-05-06 04:06 | 34.12774 | -118.08885 | 18101 ft | 403 kts | 56° |
| 2026-05-06 04:06 | 34.14358 | -118.06077 | 18623 ft | 406 kts | 56° |
| 2026-05-06 04:06 | 34.15956 | -118.03240 | 19139 ft | 409 kts | 56° |
| 2026-05-06 04:06 | 34.17543 | -118.00420 | 19621 ft | 413 kts | 56° |
| 2026-05-06 04:07 | 34.19166 | -117.97535 | 20032 ft | 418 kts | 56° |